Terminal Aerodrome Forecast
Issued by NWS Wakefield, VA

Home | Current Version | Previous Version | Text Only | Print | Product List | Glossary On
Versions: 1 2 3 4 5 6 7 8 9 10 11 12 13 14 15 16 17 18 19 20 21 22
857
FTUS41 KAKQ 260329 AAB
TAFECG
TAF AMD
KECG 260329Z 2603/2624 03012KT P6SM -SHRA OVC006
     FM260600 03012KT P6SM VCSH OVC007
     FM261000 03016G23KT P6SM VCSH OVC010
     FM261200 03017G25KT P6SM OVC010
     FM261700 01023G31KT 4SM -RA BR OVC015=

USA.gov is the U.S. government's official web portal to all federal, state and local government web resources and services.